Time;durP1;ratioP1;P1;durP2;ratioP2;P2;SDS_P1;SDS_P2;PMS_P1;PMS_P2;Temp;Humidity;BMP_temperature;BMP_pressure;BME280_temperature;BME280_humidity;BME280_pressure;Samples;Min_cycle;Max_cycle;Signal;HPM_P1;HPM_P2
2023/01/20 00:01:32;;;;;;;17.63;10.25;;;5.00;99.90;;;;;;5074827;28;20036;-34
2023/01/20 00:03:58;;;;;;;17.45;9.20;;;5.00;99.90;;;;;;5074539;28;20501;-40
2023/01/20 00:06:28;;;;;;;31.75;13.32;;;5.10;99.90;;;;;;5075340;28;20036;-38
2023/01/20 00:08:56;;;;;;;22.20;10.50;;;5.40;99.90;;;;;;5074534;28;20024;-42
2023/01/20 00:11:22;;;;;;;22.88;9.90;;;5.60;99.90;;;;;;5075076;28;20494;-43
2023/01/20 00:13:53;;;;;;;18.17;9.45;;;5.70;99.90;;;;;;5074829;28;20048;-43
2023/01/20 00:16:19;;;;;;;19.30;9.27;;;5.80;99.90;;;;;;5074314;28;20028;-42
2023/01/20 00:18:44;;;;;;;17.50;8.93;;;5.80;99.90;;;;;;5074349;28;20107;-40
2023/01/20 00:21:12;;;;;;;15.35;9.38;;;5.70;99.90;;;;;;5074318;28;20024;-42
2023/01/20 00:23:39;;;;;;;17.52;8.55;;;5.70;99.90;;;;;;5074399;28;20025;-42
2023/01/20 00:26:07;;;;;;;19.02;9.07;;;5.60;99.90;;;;;;5074152;28;20428;-38
2023/01/20 00:28:34;;;;;;;13.68;8.13;;;5.50;99.90;;;;;;5073924;28;20028;-33
2023/01/20 00:31:30;;;;;;;15.90;8.55;;;5.40;99.90;;;;;;5073980;28;20051;-42
2023/01/20 00:33:58;;;;;;;13.80;8.10;;;5.30;99.90;;;;;;5074273;28;20124;-41
2023/01/20 00:36:25;;;;;;;15.13;8.05;;;5.30;99.90;;;;;;5073711;28;20040;-40
2023/01/20 00:38:50;;;;;;;13.93;7.80;;;5.20;99.90;;;;;;5073923;28;20029;-37
2023/01/20 00:41:17;;;;;;;12.63;7.97;;;5.20;99.90;;;;;;5074337;28;20394;-36
2023/01/20 00:43:43;;;;;;;13.30;7.68;;;5.20;99.90;;;;;;5074405;28;20028;-41
2023/01/20 00:46:09;;;;;;;17.23;8.27;;;5.10;99.90;;;;;;5072315;28;20131;-43
2023/01/20 00:48:35;;;;;;;11.98;7.00;;;5.10;99.90;;;;;;5073585;28;20028;-38
2023/01/20 00:51:02;;;;;;;15.77;8.10;;;5.10;99.90;;;;;;5073727;28;20040;-43
2023/01/20 00:53:27;;;;;;;11.38;7.40;;;5.00;99.90;;;;;;5074697;28;20016;-43
2023/01/20 00:55:53;;;;;;;15.15;7.45;;;5.00;99.90;;;;;;5073380;28;20024;-42
2023/01/20 00:58:19;;;;;;;12.32;7.75;;;5.00;99.90;;;;;;5073935;28;20097;-43
2023/01/20 01:00:49;;;;;;;13.82;8.05;;;5.00;99.90;;;;;;5073976;28;20074;-33
2023/01/20 01:03:15;;;;;;;12.40;7.53;;;5.00;99.90;;;;;;5073802;28;20118;-42
2023/01/20 01:05:40;;;;;;;14.50;7.80;;;5.10;99.90;;;;;;5073318;28;20490;-41
2023/01/20 01:08:06;;;;;;;13.07;6.90;;;5.30;99.90;;;;;;5073551;28;20063;-42
2023/01/20 01:10:32;;;;;;;11.23;6.82;;;5.50;99.90;;;;;;5073435;28;20440;-34
2023/01/20 01:13:01;;;;;;;14.30;7.43;;;5.70;99.90;;;;;;5074430;28;20103;-35
2023/01/20 01:15:27;;;;;;;14.75;7.20;;;5.90;99.90;;;;;;5071943;28;20140;-42
2023/01/20 01:17:54;;;;;;;11.18;6.75;;;5.90;99.90;;;;;;5073003;28;20108;-39
2023/01/20 01:20:20;;;;;;;11.80;6.97;;;5.90;99.90;;;;;;5073316;28;20044;-43
2023/01/20 01:22:46;;;;;;;12.95;7.47;;;5.80;99.90;;;;;;5074033;28;20104;-36
2023/01/20 01:25:11;;;;;;;12.02;6.65;;;5.70;99.90;;;;;;5073163;28;20028;-35
2023/01/20 01:27:37;;;;;;;12.10;6.80;;;5.60;99.90;;;;;;5072976;28;20550;-43
2023/01/20 01:30:03;;;;;;;12.60;6.97;;;5.50;99.90;;;;;;5073841;28;20373;-40
2023/01/20 01:32:29;;;;;;;11.10;6.55;;;5.50;99.90;;;;;;5073265;28;20020;-43
2023/01/20 01:34:54;;;;;;;11.27;6.45;;;5.40;99.90;;;;;;5073073;28;20035;-35
2023/01/20 01:37:20;;;;;;;11.63;6.90;;;5.30;99.90;;;;;;5073758;28;20024;-42
2023/01/20 01:39:46;;;;;;;13.80;6.55;;;5.30;99.90;;;;;;5072913;28;20032;-42
2023/01/20 01:42:13;;;;;;;12.85;7.22;;;5.20;99.90;;;;;;5073209;28;20025;-37
2023/01/20 01:45:11;;;;;;;12.35;6.43;;;5.20;99.90;;;;;;5072365;28;20402;-36
2023/01/20 01:47:45;;;;;;;11.95;7.15;;;5.10;99.90;;;;;;5072718;28;20036;-33
2023/01/20 01:50:16;;;;;;;14.50;6.72;;;5.10;99.90;;;;;;5072638;28;20021;-43
2023/01/20 01:52:45;;;;;;;13.63;6.28;;;5.10;99.90;;;;;;5072559;28;20033;-42
2023/01/20 01:55:13;;;;;;;12.80;6.45;;;5.00;99.90;;;;;;5072478;28;20040;-43
2023/01/20 01:57:39;;;;;;;11.73;6.30;;;5.00;99.90;;;;;;5072035;28;20044;-41
2023/01/20 02:00:05;;;;;;;12.05;6.75;;;5.00;99.90;;;;;;5072476;28;20032;-38
2023/01/20 02:02:31;;;;;;;12.77;7.03;;;5.00;99.90;;;;;;5072472;28;20037;-36
2023/01/20 02:04:57;;;;;;;9.70;5.90;;;5.00;99.90;;;;;;5072365;28;20032;-35
2023/01/20 02:07:23;;;;;;;9.73;5.80;;;5.20;99.90;;;;;;5072749;28;20031;-38
2023/01/20 02:09:48;;;;;;;12.93;6.30;;;5.40;99.90;;;;;;5072844;28;20441;-42
2023/01/20 02:12:17;;;;;;;14.52;6.35;;;5.60;99.90;;;;;;5072188;28;20059;-35
2023/01/20 02:14:47;;;;;;;9.60;6.00;;;5.80;99.90;;;;;;5072299;28;20056;-41
2023/01/20 02:17:46;;;;;;;9.80;5.95;;;5.80;99.90;;;;;;5072057;28;20019;-42
2023/01/20 02:20:37;;;;;;;10.93;6.00;;;5.80;99.90;;;;;;5072787;28;20111;-43
2023/01/20 02:23:33;;;;;;;9.10;5.53;;;5.70;99.90;;;;;;5072424;28;20535;-43
2023/01/20 02:26:22;;;;;;;9.98;5.28;;;5.60;99.90;;;;;;5071998;28;20074;-42
2023/01/20 02:28:54;;;;;;;9.43;5.00;;;5.50;99.90;;;;;;5072009;28;20029;-35
2023/01/20 02:31:57;;;;;;;13.95;5.88;;;5.40;99.90;;;;;;5073355;28;20032;-41
2023/01/20 02:34:49;;;;;;;10.93;5.35;;;5.30;99.90;;;;;;5072005;28;20025;-33
2023/01/20 02:37:19;;;;;;;9.60;5.53;;;5.30;99.90;;;;;;5072965;28;20490;-37
2023/01/20 02:40:13;;;;;;;9.38;5.82;;;5.20;99.90;;;;;;5071657;28;20021;-43
2023/01/20 02:42:47;;;;;;;12.55;6.40;;;5.10;99.90;;;;;;5071729;28;20058;-41
2023/01/20 02:45:24;;;;;;;10.57;5.55;;;5.10;99.90;;;;;;5071529;28;20027;-39
2023/01/20 02:48:15;;;;;;;8.55;5.53;;;5.00;99.90;;;;;;5071532;28;20024;-40
2023/01/20 02:50:47;;;;;;;10.23;5.60;;;5.00;99.90;;;;;;5072496;28;20047;-37
2023/01/20 02:53:15;;;;;;;10.00;5.35;;;5.00;99.90;;;;;;5071492;28;20125;-42
2023/01/20 02:55:45;;;;;;;8.75;5.50;;;5.00;99.90;;;;;;5071458;28;20024;-35
2023/01/20 02:58:20;;;;;;;8.93;5.82;;;4.90;99.90;;;;;;5071245;28;20105;-36
2023/01/20 03:00:56;;;;;;;10.38;5.40;;;4.90;99.90;;;;;;5071482;28;20048;-34
2023/01/20 03:03:28;;;;;;;10.45;5.70;;;4.90;99.90;;;;;;5071531;28;20031;-37
2023/01/20 03:05:57;;;;;;;10.13;5.90;;;5.00;99.90;;;;;;5071104;28;20214;-39
2023/01/20 03:08:26;;;;;;;9.50;4.93;;;5.20;99.90;;;;;;5071310;28;20390;-41
2023/01/20 03:10:56;;;;;;;10.73;5.50;;;5.40;99.90;;;;;;5070584;28;20107;-41
2023/01/20 03:13:35;;;;;;;8.07;4.82;;;5.60;99.90;;;;;;5072116;28;20028;-42
2023/01/20 03:16:05;;;;;;;8.95;4.80;;;5.70;99.90;;;;;;5071468;28;20033;-43
2023/01/20 03:18:32;;;;;;;10.75;5.60;;;5.70;99.90;;;;;;5072283;28;20371;-37
2023/01/20 03:20:59;;;;;;;8.18;5.05;;;5.70;99.90;;;;;;5072694;28;20398;-42
2023/01/20 03:23:27;;;;;;;6.90;5.00;;;5.60;99.90;;;;;;5071314;28;20025;-42
2023/01/20 03:25:54;;;;;;;8.48;5.07;;;5.50;99.90;;;;;;5070968;28;20028;-37
2023/01/20 03:28:20;;;;;;;8.48;5.35;;;5.40;99.90;;;;;;5071063;28;20032;-38
2023/01/20 03:30:45;;;;;;;8.98;5.10;;;5.40;99.90;;;;;;5070999;28;20021;-43
2023/01/20 03:33:12;;;;;;;8.00;4.72;;;5.30;99.90;;;;;;5071383;28;20044;-42
2023/01/20 03:35:39;;;;;;;7.43;4.72;;;5.20;99.90;;;;;;5071676;28;20078;-43
2023/01/20 03:38:05;;;;;;;8.02;4.63;;;5.20;99.90;;;;;;5070882;28;20033;-43
2023/01/20 03:40:43;;;;;;;7.28;4.68;;;5.10;99.90;;;;;;5071050;28;20528;-38
2023/01/20 03:43:20;;;;;;;7.70;4.28;;;5.10;99.90;;;;;;5071094;28;20078;-40
2023/01/20 03:46:01;;;;;;;8.95;4.60;;;5.00;99.90;;;;;;5070820;28;20020;-42
2023/01/20 03:48:45;;;;;;;8.95;4.78;;;5.00;99.90;;;;;;5070982;28;20021;-40
2023/01/20 03:51:55;;;;;;;10.27;5.22;;;5.00;99.90;;;;;;5071791;28;20107;-36
2023/01/20 03:54:25;;;;;;;7.78;5.00;;;4.90;99.90;;;;;;5069508;28;20041;-40
2023/01/20 03:57:03;;;;;;;8.35;5.32;;;4.90;99.90;;;;;;5069105;28;20402;-39
2023/01/20 03:59:33;;;;;;;6.90;4.70;;;4.90;99.90;;;;;;5070747;28;20107;-36
2023/01/20 04:02:03;;;;;;;8.77;5.00;;;4.80;99.90;;;;;;5070960;28;20033;-42
2023/01/20 04:04:30;;;;;;;8.45;5.05;;;4.90;99.90;;;;;;5070784;28;20459;-35
2023/01/20 04:06:56;;;;;;;8.60;4.82;;;5.00;99.90;;;;;;5070461;28;20027;-41
2023/01/20 04:09:27;;;;;;;8.35;4.43;;;5.20;99.90;;;;;;5070656;28;20028;-42
2023/01/20 04:11:53;;;;;;;8.80;4.68;;;5.40;99.90;;;;;;5070907;28;20321;-34
2023/01/20 04:14:19;;;;;;;10.00;4.97;;;5.50;99.90;;;;;;5071447;28;20033;-33
2023/01/20 04:16:55;;;;;;;7.07;4.45;;;5.50;99.90;;;;;;5070291;28;20091;-43
2023/01/20 04:19:21;;;;;;;7.97;4.80;;;5.50;99.90;;;;;;5071255;28;20028;-43
2023/01/20 04:21:58;;;;;;;6.05;4.35;;;5.50;99.90;;;;;;5073584;28;20107;-33
2023/01/20 04:24:33;;;;;;;7.28;4.50;;;5.40;99.90;;;;;;5074400;28;20444;-35
2023/01/20 04:26:59;;;;;;;9.55;4.65;;;5.30;99.90;;;;;;5074103;28;20032;-43
2023/01/20 04:29:24;;;;;;;9.30;4.80;;;5.20;99.90;;;;;;5074291;28;20036;-34
2023/01/20 04:31:56;;;;;;;7.47;4.43;;;5.20;99.90;;;;;;5074269;28;20055;-36
2023/01/20 04:34:22;;;;;;;6.95;4.50;;;5.10;99.90;;;;;;5074232;28;20029;-41
2023/01/20 04:36:47;;;;;;;7.57;4.70;;;5.10;99.90;;;;;;5073933;28;20604;-42
2023/01/20 04:39:13;;;;;;;7.30;4.65;;;5.20;99.90;;;;;;5072982;28;20033;-39
2023/01/20 04:41:38;;;;;;;7.75;4.60;;;5.30;99.90;;;;;;5073981;28;20110;-37
2023/01/20 04:44:04;;;;;;;11.07;6.70;;;5.40;99.90;;;;;;5073998;28;20029;-43
2023/01/20 04:46:30;;;;;;;8.82;5.60;;;5.40;99.90;;;;;;5073686;28;20086;-42
2023/01/20 04:48:55;;;;;;;7.22;4.70;;;5.30;99.90;;;;;;5073876;28;20490;-35
2023/01/20 04:51:21;;;;;;;9.43;5.20;;;5.30;99.90;;;;;;5073874;28;20060;-42
2023/01/20 04:53:46;;;;;;;8.32;4.97;;;5.30;99.90;;;;;;5074351;28;20028;-43
2023/01/20 04:56:14;;;;;;;8.43;4.78;;;5.20;99.90;;;;;;5073576;28;20032;-35
2023/01/20 04:58:40;;;;;;;9.30;4.78;;;5.10;99.90;;;;;;5073574;28;20040;-41
2023/01/20 05:01:07;;;;;;;7.60;4.65;;;5.10;99.90;;;;;;5073926;28;20532;-35
2023/01/20 05:03:33;;;;;;;9.05;5.13;;;5.10;99.90;;;;;;5073736;28;20478;-42
2023/01/20 05:05:58;;;;;;;8.93;5.05;;;5.20;99.90;;;;;;5074154;28;20093;-39
2023/01/20 05:08:24;;;;;;;7.70;4.70;;;5.30;99.90;;;;;;5073650;28;20020;-37
2023/01/20 05:10:50;;;;;;;9.25;5.40;;;5.40;99.90;;;;;;5075142;28;20032;-39
2023/01/20 05:13:15;;;;;;;8.10;4.47;;;5.40;99.90;;;;;;5073471;28;20028;-33
2023/01/20 05:15:42;;;;;;;10.18;5.18;;;5.30;99.90;;;;;;5073407;28;20063;-42
2023/01/20 05:18:08;;;;;;;8.02;4.60;;;5.30;99.90;;;;;;5073327;28;20390;-39
2023/01/20 05:20:33;;;;;;;7.90;5.20;;;5.20;99.90;;;;;;5073368;28;20021;-35
2023/01/20 05:22:59;;;;;;;7.05;4.75;;;5.20;99.90;;;;;;5073382;28;20371;-42
2023/01/20 05:25:25;;;;;;;5.90;4.25;;;5.10;99.90;;;;;;5073545;28;20478;-42
2023/01/20 05:27:50;;;;;;;7.28;4.88;;;5.10;99.90;;;;;;5072912;28;20028;-37
2023/01/20 05:30:16;;;;;;;10.88;5.75;;;5.10;99.90;;;;;;5073269;28;20113;-38
2023/01/20 05:32:44;;;;;;;10.27;4.90;;;5.20;99.90;;;;;;5072456;28;20028;-42
2023/01/20 05:35:09;;;;;;;10.70;5.68;;;5.30;99.90;;;;;;5073183;28;20021;-35
2023/01/20 05:37:35;;;;;;;14.02;7.65;;;5.40;99.90;;;;;;5073117;28;20035;-42
2023/01/20 05:40:01;;;;;;;11.05;6.38;;;5.40;99.90;;;;;;5072812;28;20111;-39
2023/01/20 05:42:26;;;;;;;11.77;6.22;;;5.40;99.90;;;;;;5072934;28;20024;-35
2023/01/20 05:44:52;;;;;;;8.75;5.60;;;5.30;99.90;;;;;;5072811;28;20083;-43
2023/01/20 05:47:17;;;;;;;10.23;5.55;;;5.20;99.90;;;;;;5072619;28;20174;-43
2023/01/20 05:49:43;;;;;;;9.68;5.68;;;5.20;99.90;;;;;;5073020;28;20025;-39
2023/01/20 05:52:09;;;;;;;10.18;5.82;;;5.20;99.90;;;;;;5072979;28;20048;-34
2023/01/20 05:54:34;;;;;;;11.05;6.22;;;5.10;99.90;;;;;;5072593;28;20024;-42
2023/01/20 05:57:00;;;;;;;8.50;5.38;;;5.10;99.90;;;;;;5072393;28;20455;-33
2023/01/20 05:59:26;;;;;;;10.98;5.60;;;5.30;99.90;;;;;;5072593;28;20035;-42
2023/01/20 06:01:51;;;;;;;10.52;5.70;;;5.30;99.90;;;;;;5072356;28;20471;-36
2023/01/20 06:04:17;;;;;;;8.23;5.10;;;5.40;99.90;;;;;;5072561;28;20025;-33
2023/01/20 06:06:42;;;;;;;10.32;5.85;;;5.40;99.90;;;;;;5072361;28;20032;-37
2023/01/20 06:09:09;;;;;;;8.68;5.60;;;5.30;99.90;;;;;;5072283;28;20060;-37
2023/01/20 06:11:35;;;;;;;10.65;6.07;;;5.30;99.90;;;;;;5072349;28;20025;-43
2023/01/20 06:14:01;;;;;;;11.30;5.82;;;5.20;99.90;;;;;;5072334;28;20073;-41
2023/01/20 06:16:26;;;;;;;8.98;5.47;;;5.20;99.90;;;;;;5071992;28;20025;-40
2023/01/20 06:18:52;;;;;;;8.70;5.32;;;5.10;99.90;;;;;;5072126;28;20092;-34
2023/01/20 06:21:18;;;;;;;8.98;4.88;;;5.10;99.90;;;;;;5072506;28;20028;-42
2023/01/20 06:23:43;;;;;;;11.38;5.78;;;5.10;99.90;;;;;;5072181;28;20029;-42
2023/01/20 06:26:13;;;;;;;8.00;5.47;;;5.30;99.90;;;;;;5071802;28;20056;-35
2023/01/20 06:28:39;;;;;;;8.80;5.43;;;5.40;99.90;;;;;;5072011;28;20024;-41
2023/01/20 06:31:08;;;;;;;12.27;5.72;;;5.40;99.90;;;;;;5071957;28;20016;-42
2023/01/20 06:33:34;;;;;;;11.25;6.10;;;5.30;99.90;;;;;;5072289;28;20077;-38
2023/01/20 06:36:00;;;;;;;9.95;5.97;;;5.30;99.90;;;;;;5071687;28;20112;-39
2023/01/20 06:38:30;;;;;;;13.00;5.97;;;5.20;99.90;;;;;;5071840;28;20028;-34
2023/01/20 06:41:06;;;;;;;8.05;5.10;;;5.20;99.90;;;;;;5071978;28;20032;-42
2023/01/20 06:43:34;;;;;;;9.70;5.40;;;5.10;99.90;;;;;;5071953;28;20025;-35
2023/01/20 06:46:05;;;;;;;10.63;6.13;;;5.00;99.90;;;;;;5071435;28;20133;-36
2023/01/20 06:48:31;;;;;;;10.43;6.03;;;5.10;99.90;;;;;;5071676;28;20064;-35
2023/01/20 06:51:04;;;;;;;10.02;5.55;;;5.10;99.90;;;;;;5071672;28;20110;-42
2023/01/20 06:53:30;;;;;;;8.63;5.90;;;5.20;99.90;;;;;;5071988;28;20547;-36
2023/01/20 06:55:57;;;;;;;8.30;5.53;;;5.30;99.90;;;;;;5071660;28;20024;-40
2023/01/20 06:58:24;;;;;;;17.73;7.35;;;5.30;99.90;;;;;;5071513;28;20190;-43
2023/01/20 07:00:51;;;;;;;13.82;6.95;;;5.30;99.90;;;;;;5071260;28;20025;-36
2023/01/20 07:03:17;;;;;;;10.73;5.60;;;5.20;99.90;;;;;;5071522;28;20107;-36
2023/01/20 07:05:42;;;;;;;8.07;5.15;;;5.10;99.90;;;;;;5071443;28;20115;-36
2023/01/20 07:08:08;;;;;;;11.02;6.05;;;5.10;99.90;;;;;;5071261;28;20052;-38
2023/01/20 07:10:34;;;;;;;8.65;5.22;;;5.00;99.90;;;;;;5071390;28;20501;-34
2023/01/20 07:12:59;;;;;;;8.95;5.20;;;4.90;99.90;;;;;;5071308;28;20031;-35
2023/01/20 07:15:25;;;;;;;9.52;5.70;;;5.00;99.90;;;;;;5071332;28;20090;-34
2023/01/20 07:17:51;;;;;;;7.97;4.80;;;5.10;99.90;;;;;;5071081;28;20028;-42
2023/01/20 07:20:16;;;;;;;9.15;5.28;;;5.10;99.90;;;;;;5071357;28;20028;-41
2023/01/20 07:22:42;;;;;;;9.05;5.00;;;5.20;99.90;;;;;;5071409;28;20287;-41
2023/01/20 07:25:08;;;;;;;8.77;5.18;;;5.10;99.90;;;;;;5072002;28;20070;-43
2023/01/20 07:27:33;;;;;;;8.23;5.15;;;5.10;99.90;;;;;;5070910;28;20363;-38
2023/01/20 07:29:59;;;;;;;6.97;4.78;;;5.10;99.90;;;;;;5071172;28;20027;-38
2023/01/20 07:32:29;;;;;;;7.25;5.07;;;5.00;99.90;;;;;;5071178;28;20017;-33
2023/01/20 07:34:54;;;;;;;8.68;5.45;;;5.00;99.90;;;;;;5071183;28;20383;-38
2023/01/20 07:37:20;;;;;;;7.88;5.25;;;4.90;99.90;;;;;;5070901;28;20031;-42
2023/01/20 07:39:45;;;;;;;10.25;6.03;;;4.80;99.90;;;;;;5071243;28;20028;-42
2023/01/20 07:42:11;;;;;;;9.30;5.30;;;4.80;99.90;;;;;;5071036;28;20563;-36
2023/01/20 07:44:36;;;;;;;9.30;6.20;;;4.80;99.90;;;;;;5071044;28;20031;-35
2023/01/20 07:47:02;;;;;;;11.80;6.53;;;4.70;99.90;;;;;;5071046;28;20478;-37
2023/01/20 07:49:28;;;;;;;8.35;5.88;;;4.80;99.90;;;;;;5071068;28;20028;-39
2023/01/20 07:51:53;;;;;;;10.55;6.22;;;4.90;99.90;;;;;;5071508;28;20033;-37
2023/01/20 07:54:19;;;;;;;11.35;6.40;;;5.10;99.90;;;;;;5070878;28;20031;-43
2023/01/20 07:56:45;;;;;;;12.00;6.10;;;5.10;99.90;;;;;;5072975;28;20453;-34
2023/01/20 07:59:10;;;;;;;9.63;6.05;;;5.10;99.90;;;;;;5074904;28;20035;-42
2023/01/20 08:01:36;;;;;;;11.98;5.93;;;5.10;99.90;;;;;;5074608;28;20035;-38
2023/01/20 08:04:02;;;;;;;10.18;6.18;;;5.10;99.90;;;;;;5075447;28;20031;-39
2023/01/20 08:06:28;;;;;;;8.57;5.88;;;5.00;99.90;;;;;;5074360;28;20054;-42
2023/01/20 08:08:55;;;;;;;10.73;7.05;;;5.00;99.90;;;;;;5074653;28;20089;-36
2023/01/20 08:11:22;;;;;;;13.55;8.35;;;4.90;99.90;;;;;;5074631;28;20029;-39
2023/01/20 08:13:48;;;;;;;11.00;6.70;;;4.80;99.90;;;;;;5074600;28;20413;-36
2023/01/20 08:16:16;;;;;;;11.60;7.10;;;4.80;99.90;;;;;;5074456;28;20025;-42
2023/01/20 08:18:42;;;;;;;10.30;6.68;;;4.80;99.90;;;;;;5074333;28;20431;-36
2023/01/20 08:21:25;;;;;;;10.55;6.03;;;4.80;99.90;;;;;;5074510;28;20081;-42
2023/01/20 08:23:50;;;;;;;14.50;7.82;;;5.00;99.90;;;;;;5074586;28;20098;-42
2023/01/20 08:26:18;;;;;;;12.30;7.40;;;5.10;99.90;;;;;;5074153;28;20029;-37
2023/01/20 08:28:43;;;;;;;10.23;6.45;;;5.20;99.90;;;;;;5074349;28;20021;-39
2023/01/20 08:31:12;;;;;;;12.57;7.05;;;5.30;99.90;;;;;;5074286;28;20021;-35
2023/01/20 08:33:38;;;;;;;15.60;6.97;;;5.30;99.90;;;;;;5074447;28;20025;-36
2023/01/20 08:36:07;;;;;;;11.68;6.68;;;5.20;99.90;;;;;;5074534;28;20059;-34
2023/01/20 08:38:34;;;;;;;9.68;6.43;;;5.20;99.90;;;;;;5074075;28;20024;-37
2023/01/20 08:41:00;;;;;;;10.10;6.40;;;5.10;99.90;;;;;;5074313;28;20036;-40
2023/01/20 08:43:25;;;;;;;12.82;6.93;;;5.10;99.90;;;;;;5074098;28;20024;-44
2023/01/20 08:46:03;;;;;;;12.93;7.22;;;4.90;99.90;;;;;;5073676;28;20069;-44
2023/01/20 08:48:29;;;;;;;10.80;6.53;;;4.70;99.90;;;;;;5073959;28;20025;-44
2023/01/20 08:50:54;;;;;;;12.70;6.85;;;4.80;99.90;;;;;;5074014;28;20031;-44
2023/01/20 08:53:20;;;;;;;16.38;9.00;;;4.80;99.90;;;;;;5073848;28;20544;-38
2023/01/20 08:55:59;;;;;;;14.95;6.68;;;4.90;99.90;;;;;;5073715;28;20055;-39
2023/01/20 08:58:26;;;;;;;12.52;6.72;;;5.00;99.90;;;;;;5073575;28;20070;-45
2023/01/20 09:00:52;;;;;;;17.73;7.10;;;4.90;99.90;;;;;;5073540;28;20036;-37
2023/01/20 09:03:18;;;;;;;13.63;6.93;;;5.00;99.90;;;;;;5073740;28;20478;-39
2023/01/20 09:05:43;;;;;;;14.95;7.95;;;5.00;99.90;;;;;;5073455;28;20078;-42
2023/01/20 09:08:09;;;;;;;12.35;6.80;;;4.90;99.90;;;;;;5072290;28;20057;-44
2023/01/20 09:10:35;;;;;;;13.00;7.00;;;5.00;99.90;;;;;;5074023;28;20050;-39
2023/01/20 09:13:00;;;;;;;12.23;6.90;;;5.10;99.90;;;;;;5073865;28;20021;-35
2023/01/20 09:15:26;;;;;;;11.45;7.07;;;5.30;99.90;;;;;;5073480;28;20028;-39
2023/01/20 09:17:52;;;;;;;14.45;7.20;;;5.40;99.90;;;;;;5073190;28;20025;-34
2023/01/20 09:20:17;;;;;;;11.18;6.47;;;5.40;99.90;;;;;;5073867;28;20435;-41
2023/01/20 09:22:43;;;;;;;12.73;6.90;;;5.50;99.90;;;;;;5074019;28;20478;-40
2023/01/20 09:25:10;;;;;;;11.80;6.75;;;5.50;99.90;;;;;;5073319;28;20035;-35
2023/01/20 09:27:35;;;;;;;14.20;7.15;;;5.50;99.90;;;;;;5072985;28;20028;-39
2023/01/20 09:30:03;;;;;;;12.75;6.53;;;5.50;99.90;;;;;;5073302;28;20020;-36
2023/01/20 09:32:28;;;;;;;9.25;6.22;;;5.40;99.90;;;;;;5073250;28;20029;-40
2023/01/20 09:34:55;;;;;;;10.80;6.28;;;5.40;99.90;;;;;;5073242;28;20031;-39
2023/01/20 09:46:10;;;;;;;9.07;6.10;;;5.50;99.90;;;;;;5072650;28;20437;-45
2023/01/20 09:54:51;;;;;;;9.68;5.93;;;5.40;99.90;;;;;;5073171;28;20043;-40
2023/01/20 09:57:20;;;;;;;10.32;5.75;;;5.40;99.90;;;;;;5072377;28;20029;-36
2023/01/20 09:59:54;;;;;;;12.95;6.35;;;5.40;99.90;;;;;;5072475;28;20154;-45
2023/01/20 10:02:26;;;;;;;12.65;6.40;;;5.30;99.90;;;;;;5072581;28;20027;-45
2023/01/20 10:05:00;;;;;;;11.68;6.13;;;5.10;99.90;;;;;;5072526;28;20020;-41
2023/01/20 10:07:55;;;;;;;9.00;5.68;;;5.00;99.90;;;;;;5072260;28;20021;-37
2023/01/20 10:10:30;;;;;;;10.98;6.13;;;5.00;99.90;;;;;;5073944;28;20062;-42
2023/01/20 10:13:06;;;;;;;11.00;5.85;;;5.00;99.90;;;;;;5072267;28;20111;-41
2023/01/20 10:15:35;;;;;;;8.93;5.70;;;5.00;99.90;;;;;;5072365;28;20044;-44
2023/01/20 10:18:53;;;;;;;9.32;5.45;;;5.00;99.90;;;;;;5072046;28;20033;-43
2023/01/20 10:21:26;;;;;;;10.88;5.70;;;5.00;99.90;;;;;;5072057;28;20064;-38
2023/01/20 10:23:57;;;;;;;10.18;5.95;;;5.10;99.90;;;;;;5072783;28;20028;-38
2023/01/20 10:26:30;;;;;;;8.52;5.20;;;5.10;99.90;;;;;;5072260;28;20036;-38
2023/01/20 10:29:01;;;;;;;9.15;5.20;;;5.10;99.90;;;;;;5073504;28;20020;-40
2023/01/20 10:31:31;;;;;;;10.25;5.35;;;5.20;99.90;;;;;;5073468;28;20025;-42
2023/01/20 10:34:21;;;;;;;10.32;5.60;;;5.20;99.90;;;;;;5073072;28;20037;-40
2023/01/20 10:36:59;;;;;;;8.07;4.63;;;5.20;99.90;;;;;;5071642;28;20032;-40
2023/01/20 10:39:48;;;;;;;7.40;4.68;;;5.30;99.90;;;;;;5071828;28;20020;-35
2023/01/20 10:42:16;;;;;;;10.95;4.65;;;5.30;99.90;;;;;;5071753;28;20108;-41
2023/01/20 10:44:42;;;;;;;7.38;4.53;;;5.10;99.90;;;;;;5071999;28;20500;-43
2023/01/20 10:47:17;;;;;;;5.95;4.18;;;5.00;99.90;;;;;;5071512;28;20028;-43
2023/01/20 10:50:01;;;;;;;8.50;4.18;;;4.90;99.90;;;;;;5071814;28;20031;-39
2023/01/20 10:52:37;;;;;;;;;;;4.90;99.90;;;;;;5071973;28;20024;-36
2023/01/20 10:55:33;;;;;;;6.50;4.55;;;5.00;99.90;;;;;;5071654;28;19908;-39
2023/01/20 10:58:13;;;;;;;8.10;3.95;;;5.00;99.90;;;;;;5071603;28;20031;-41
2023/01/20 11:00:39;;;;;;;8.20;4.10;;;5.10;99.90;;;;;;5071363;28;20016;-43
2023/01/20 11:03:09;;;;;;;7.20;3.83;;;5.10;99.90;;;;;;5071524;28;20378;-36
2023/01/20 11:05:37;;;;;;;7.25;3.83;;;5.10;99.90;;;;;;5071317;28;20103;-40
2023/01/20 11:08:09;;;;;;;7.05;4.15;;;5.20;99.90;;;;;;5071220;28;20079;-34
2023/01/20 11:10:34;;;;;;;7.75;4.22;;;5.20;99.90;;;;;;5071391;28;20024;-37
2023/01/20 11:13:01;;;;;;;7.13;4.30;;;5.30;99.90;;;;;;5071656;28;20016;-40
2023/01/20 11:15:36;;;;;;;9.65;4.55;;;5.30;99.90;;;;;;5071366;28;20048;-41
2023/01/20 11:18:31;;;;;;;26.77;5.60;;;5.30;99.90;;;;;;5071100;28;20028;-36
2023/01/20 11:21:03;;;;;;;7.10;4.53;;;5.20;99.90;;;;;;5070791;28;20398;-36
2023/01/20 11:23:37;;;;;;;9.75;4.97;;;5.10;99.90;;;;;;5071211;28;20628;-33
2023/01/20 11:26:10;;;;;;;;;;;5.10;99.90;;;;;;5071477;28;20021;-40
2023/01/20 11:28:46;;;;;;;9.82;4.85;;;5.10;99.90;;;;;;5071200;28;19905;-40
2023/01/20 11:31:13;;;;;;;8.25;4.10;;;5.10;99.90;;;;;;5070498;28;20568;-38
2023/01/20 11:33:38;;;;;;;8.00;3.97;;;5.20;99.90;;;;;;5070990;28;20021;-38
2023/01/20 11:36:22;;;;;;;7.03;3.97;;;5.20;99.90;;;;;;5071720;28;20050;-41
2023/01/20 11:38:50;;;;;;;7.88;3.83;;;5.30;99.90;;;;;;5071148;28;20056;-38
2023/01/20 11:41:21;;;;;;;7.45;3.80;;;5.30;99.90;;;;;;5071171;28;20048;-35
2023/01/20 11:43:49;;;;;;;7.85;3.55;;;5.40;99.90;;;;;;5071217;28;20361;-35
2023/01/20 11:46:18;;;;;;;8.98;3.97;;;5.40;99.90;;;;;;5070728;28;20021;-38
2023/01/20 11:48:44;;;;;;;9.50;3.90;;;5.40;99.90;;;;;;5070939;28;20044;-41
2023/01/20 11:51:24;;;;;;;9.82;4.13;;;5.40;99.90;;;;;;5071275;28;20033;-42
2023/01/20 11:54:04;;;;;;;6.78;3.38;;;5.50;99.90;;;;;;5071287;28;20424;-35
2023/01/20 11:56:40;;;;;;;6.03;3.58;;;5.50;99.90;;;;;;5071185;28;20025;-37
2023/01/20 11:59:26;;;;;;;5.18;3.33;;;5.60;99.90;;;;;;5071502;28;20072;-40
2023/01/20 12:02:19;;;;;;;4.65;3.15;;;5.60;99.90;;;;;;5071411;28;20056;-38
2023/01/20 12:05:13;;;;;;;5.40;3.58;;;5.60;99.90;;;;;;5071679;28;20052;-35
2023/01/20 12:07:48;;;;;;;6.22;3.20;;;5.60;99.90;;;;;;5071533;28;20363;-38
2023/01/20 12:10:16;;;;;;;4.03;3.10;;;5.70;99.90;;;;;;5071044;28;20516;-36
2023/01/20 12:12:51;;;;;;;5.93;3.22;;;5.70;99.90;;;;;;5070801;28;20112;-36
2023/01/20 12:15:26;;;;;;;6.15;3.38;;;5.70;99.90;;;;;;5070641;28;20029;-35
2023/01/20 12:18:16;;;;;;;5.05;3.20;;;5.70;99.90;;;;;;5070423;28;20093;-36
2023/01/20 12:21:00;;;;;;;5.82;3.03;;;5.70;99.90;;;;;;5071270;28;20040;-41
2023/01/20 12:24:01;;;;;;;3.13;2.60;;;5.80;99.90;;;;;;5070826;28;20048;-39
2023/01/20 12:26:27;;;;;;;5.95;3.10;;;5.80;99.90;;;;;;5071102;28;20060;-41
2023/01/20 12:29:05;;;;;;;6.55;3.35;;;5.80;99.90;;;;;;5071044;28;20025;-35
2023/01/20 12:31:31;;;;;;;5.45;3.15;;;5.80;99.90;;;;;;5070921;28;20052;-39
2023/01/20 12:34:02;;;;;;;3.83;2.67;;;5.80;99.90;;;;;;5070487;28;20021;-39
2023/01/20 12:36:41;;;;;;;4.32;2.90;;;5.80;99.90;;;;;;5070451;28;20124;-42
2023/01/20 12:39:25;;;;;;;4.40;2.95;;;5.90;99.90;;;;;;5071068;28;20024;-35
2023/01/20 12:41:59;;;;;;;3.35;2.45;;;5.90;99.90;;;;;;5071454;28;20037;-40
2023/01/20 12:45:13;;;;;;;4.70;2.40;;;5.90;99.90;;;;;;5073973;28;20029;-40
2023/01/20 12:48:00;;;;;;;5.13;2.75;;;5.90;99.90;;;;;;5071425;28;20039;-39
2023/01/20 12:50:47;;;;;;;5.20;2.78;;;5.90;99.90;;;;;;5072789;28;20029;-42
2023/01/20 12:53:22;;;;;;;4.88;2.53;;;5.90;99.90;;;;;;5074514;28;20036;-41
2023/01/20 12:55:54;;;;;;;4.68;2.45;;;6.00;99.90;;;;;;5074128;28;20020;-36
2023/01/20 12:58:45;;;;;;;3.58;2.50;;;6.00;99.90;;;;;;5073693;28;20036;-34
2023/01/20 13:01:28;;;;;;;4.47;2.35;;;6.00;99.90;;;;;;5073663;28;20027;-34
2023/01/20 13:04:10;;;;;;;4.13;2.60;;;6.00;99.90;;;;;;5073773;28;20096;-39
2023/01/20 13:06:41;;;;;;;4.60;2.60;;;6.00;99.90;;;;;;5073390;28;20032;-41
2023/01/20 13:09:49;;;;;;;5.75;2.22;;;6.00;99.90;;;;;;5073620;28;20058;-39
2023/01/20 13:12:17;;;;;;;4.07;2.30;;;6.00;99.90;;;;;;5072583;28;20040;-36
2023/01/20 13:15:11;;;;;;;4.93;2.42;;;6.00;99.90;;;;;;5074088;28;20032;-35
2023/01/20 13:17:42;;;;;;;3.83;2.42;;;6.10;99.90;;;;;;5073660;28;20498;-39
2023/01/20 13:20:23;;;;;;;4.47;2.88;;;6.10;99.90;;;;;;5073316;28;20025;-36
2023/01/20 13:22:50;;;;;;;10.02;3.95;;;6.10;99.90;;;;;;5073399;28;20490;-40
2023/01/20 13:25:17;;;;;;;6.45;3.40;;;6.00;99.90;;;;;;5073441;28;20303;-42
2023/01/20 13:27:44;;;;;;;6.13;2.70;;;5.90;99.90;;;;;;5073815;28;20096;-38